createdAt,value
2022-12-11T00:00:29.577Z,59.40
2022-12-11T00:05:52.379Z,56.60
2022-12-11T00:10:55.284Z,59.50
2022-12-11T00:15:59.067Z,60.10
2022-12-11T00:21:03.671Z,61.50
2022-12-11T00:26:10.112Z,62.30
2022-12-11T00:31:17.130Z,56.90
2022-12-11T00:36:22.766Z,56.90
2022-12-11T00:41:25.955Z,53.40
2022-12-11T00:46:28.944Z,47.90
2022-12-11T00:51:31.814Z,54.00
2022-12-11T00:56:34.626Z,51.20
2022-12-11T01:01:37.430Z,56.60
2022-12-11T01:06:40.248Z,60.10
2022-12-11T01:11:43.350Z,62.10
2022-12-11T01:16:47.137Z,57.20
2022-12-11T01:21:49.953Z,56.30
2022-12-11T01:26:52.939Z,51.10
2022-12-11T01:31:58.187Z,55.30
2022-12-11T01:37:02.100Z,59.90
2022-12-11T01:42:06.942Z,63.20
2022-12-11T01:47:10.057Z,59.80
2022-12-11T01:52:16.701Z,58.70
2022-12-11T01:57:21.077Z,57.00
2022-12-11T02:02:27.975Z,63.00
2022-12-11T02:07:33.815Z,55.50
2022-12-11T02:12:39.653Z,55.40
2022-12-11T02:18:32.767Z,58.70
2022-12-11T02:23:56.309Z,51.80
2022-12-11T02:29:05.523Z,55.20
2022-12-11T02:34:49.424Z,57.90
2022-12-11T02:39:53.194Z,56.60
2022-12-11T02:44:57.255Z,59.30
2022-12-11T02:50:03.249Z,62.00
2022-12-11T02:55:07.170Z,59.40
2022-12-11T03:00:11.426Z,65.20
2022-12-11T03:05:15.794Z,58.00
2022-12-11T03:10:19.730Z,64.20
2022-12-11T03:15:46.970Z,59.50
2022-12-11T03:21:31.971Z,47.30
2022-12-11T03:26:45.152Z,51.00
2022-12-11T03:32:06.719Z,51.10
2022-12-11T03:37:09.550Z,45.60
2022-12-11T03:42:14.500Z,47.40
2022-12-11T03:47:20.201Z,42.60
2022-12-11T03:52:23.101Z,41.30
2022-12-11T03:57:29.621Z,41.50
2022-12-11T04:02:32.428Z,38.60
2022-12-11T04:07:35.487Z,42.10
2022-12-11T04:12:40.371Z,39.70
2022-12-11T04:18:03.826Z,36.50
2022-12-11T04:23:34.970Z,42.50
2022-12-11T04:28:38.929Z,36.10
2022-12-11T04:33:42.264Z,40.20
2022-12-11T04:38:46.361Z,39.90
2022-12-11T04:43:49.108Z,41.20
2022-12-11T04:48:56.991Z,43.50
2022-12-11T04:54:03.175Z,43.50
2022-12-11T04:59:06.319Z,42.40
2022-12-11T05:04:12.366Z,45.10
2022-12-11T05:09:15.635Z,38.80
2022-12-11T05:14:18.790Z,37.90
2022-12-11T05:19:22.252Z,40.00
2022-12-11T05:24:26.792Z,38.50
2022-12-11T05:29:31.792Z,33.80
2022-12-11T05:34:35.154Z,36.90
2022-12-11T05:39:39.294Z,35.10
2022-12-11T05:44:42.254Z,32.60
2022-12-11T05:49:47.985Z,35.30
2022-12-11T05:54:50.829Z,21.40
2022-12-11T05:59:54.037Z,27.50
2022-12-11T06:04:56.959Z,28.50
2022-12-11T06:10:02.225Z,24.10
2022-12-11T06:15:05.968Z,23.40
2022-12-11T06:20:11.600Z,21.80
2022-12-11T06:25:14.478Z,23.90
2022-12-11T06:30:19.556Z,22.20
2022-12-11T06:35:22.329Z,25.10
2022-12-11T06:40:25.188Z,21.40
2022-12-11T06:45:28.493Z,26.20
2022-12-11T06:50:31.468Z,22.70
2022-12-11T06:55:37.523Z,21.30
2022-12-11T07:00:40.390Z,19.90
2022-12-11T07:05:43.264Z,21.10
2022-12-11T07:10:47.398Z,21.30
2022-12-11T07:15:50.523Z,19.70
2022-12-11T07:20:53.362Z,21.20
2022-12-11T07:25:56.479Z,21.90
2022-12-11T07:30:59.687Z,19.50
2022-12-11T07:36:07.619Z,20.00
2022-12-11T07:41:12.895Z,13.60
2022-12-11T07:46:37.736Z,19.00
2022-12-11T07:51:44.120Z,22.10
2022-12-11T07:56:53.416Z,24.00
2022-12-11T08:01:57.125Z,22.20
2022-12-11T08:07:01.298Z,21.50
2022-12-11T08:12:05.993Z,25.40
2022-12-11T08:17:08.987Z,29.20
2022-12-11T08:22:13.651Z,26.10
2022-12-11T08:27:16.600Z,25.70
2022-12-11T08:32:19.368Z,28.70
2022-12-11T08:37:24.506Z,29.30
2022-12-11T08:42:28.507Z,27.10
2022-12-11T08:47:31.959Z,27.60
2022-12-11T08:52:35.949Z,25.80
2022-12-11T08:57:39.839Z,26.90
2022-12-11T09:02:43.925Z,25.70
2022-12-11T09:07:48.207Z,27.00
2022-12-11T09:12:51.103Z,24.90
2022-12-11T09:17:55.157Z,27.90
2022-12-11T09:22:58.155Z,26.50
2022-12-11T09:28:01.997Z,27.40
2022-12-11T09:33:04.932Z,24.50
2022-12-11T09:38:08.496Z,23.60
2022-12-11T09:43:31.832Z,25.10
2022-12-11T09:48:35.447Z,22.60
2022-12-11T09:53:38.361Z,23.70
2022-12-11T09:59:15.244Z,22.30
2022-12-11T10:04:48.747Z,24.20
2022-12-11T10:10:25.886Z,24.00
2022-12-11T10:16:01.249Z,24.10
2022-12-11T10:21:04.184Z,26.70
2022-12-11T10:26:33.486Z,24.60
2022-12-11T10:31:54.838Z,23.70
2022-12-11T10:37:00.594Z,28.40
2022-12-11T10:42:13.967Z,21.70
2022-12-11T10:47:18.353Z,25.90
2022-12-11T10:52:25.354Z,22.70
2022-12-11T10:57:36.456Z,22.30
2022-12-11T11:02:41.631Z,22.70
2022-12-11T11:07:44.836Z,19.00
2022-12-11T11:12:49.310Z,23.10
2022-12-11T11:17:55.997Z,19.10
2022-12-11T11:23:01.903Z,15.80
2022-12-11T11:28:09.677Z,17.60
2022-12-11T11:33:14.109Z,14.50
2022-12-11T11:38:23.169Z,18.00
2022-12-11T11:43:35.088Z,14.10
2022-12-11T11:49:13.096Z,13.80
2022-12-11T11:54:44.514Z,16.50
2022-12-11T11:59:56.014Z,14.80
2022-12-11T12:04:58.821Z,16.10
2022-12-11T12:10:15.941Z,18.20
2022-12-11T12:15:47.884Z,14.60
2022-12-11T12:21:24.190Z,15.60
2022-12-11T12:26:33.455Z,18.80
2022-12-11T12:32:13.485Z,15.60
2022-12-11T12:37:36.280Z,15.80
2022-12-11T12:43:35.736Z,16.60
2022-12-11T12:54:00.520Z,17.50
2022-12-11T12:59:03.956Z,15.70
2022-12-11T13:04:08.630Z,17.60
2022-12-11T13:09:25.426Z,18.40
2022-12-11T13:14:33.027Z,15.10
2022-12-11T13:19:42.624Z,20.10
2022-12-11T13:25:01.816Z,17.70
2022-12-11T13:30:23.628Z,19.30
2022-12-11T13:35:26.582Z,17.10
2022-12-11T13:40:39.880Z,18.40
2022-12-11T13:45:42.823Z,20.10
2022-12-11T13:50:46.193Z,20.30
2022-12-11T13:56:03.518Z,20.70
2022-12-11T14:01:13.398Z,17.90
2022-12-11T14:06:18.811Z,15.20
2022-12-11T14:11:28.029Z,17.70
2022-12-11T14:16:37.093Z,11.50
2022-12-11T14:21:39.956Z,17.90
2022-12-11T14:26:51.689Z,18.20
2022-12-11T14:31:56.668Z,19.30
2022-12-11T14:36:59.550Z,18.30
2022-12-11T14:42:05.444Z,16.70
2022-12-11T14:47:15.945Z,19.10
2022-12-11T14:52:30.526Z,17.10
2022-12-11T14:57:33.712Z,17.60
2022-12-11T15:02:37.159Z,18.40
2022-12-11T15:07:44.230Z,14.90
2022-12-11T15:12:47.056Z,17.30
2022-12-11T15:17:52.894Z,18.30
2022-12-11T15:22:58.551Z,18.70
2022-12-11T15:28:01.429Z,19.10
2022-12-11T15:33:10.456Z,18.30
2022-12-11T15:38:30.440Z,20.70
2022-12-11T15:43:36.316Z,12.80
2022-12-11T15:48:39.370Z,12.10
2022-12-11T15:53:42.260Z,15.30
2022-12-11T15:58:45.201Z,20.00
2022-12-11T16:03:50.339Z,18.70
2022-12-11T16:08:53.496Z,18.60
2022-12-11T16:13:56.374Z,22.20
2022-12-11T16:18:59.207Z,19.30
2022-12-11T16:24:02.783Z,18.60
2022-12-11T16:29:05.586Z,18.60
2022-12-11T16:34:08.425Z,17.70
2022-12-11T16:39:13.171Z,13.60
2022-12-11T16:44:21.004Z,14.30
2022-12-11T16:49:23.882Z,13.80
2022-12-11T16:54:26.688Z,19.70
2022-12-11T16:59:35.151Z,18.70
2022-12-11T17:04:40.208Z,16.60
2022-12-11T17:09:46.106Z,16.60
2022-12-11T17:14:48.897Z,17.60
2022-12-11T17:19:52.221Z,19.50
2022-12-11T17:24:55.100Z,15.50
2022-12-11T17:29:57.948Z,14.20
2022-12-11T17:35:00.857Z,14.00
2022-12-11T17:40:05.233Z,17.40
2022-12-11T17:45:08.391Z,16.30
2022-12-11T17:50:11.390Z,16.70
2022-12-11T17:55:14.697Z,13.70
2022-12-11T18:00:18.375Z,17.40
2022-12-11T18:05:26.673Z,16.90
2022-12-11T18:10:29.948Z,15.60
2022-12-11T18:15:33.369Z,14.20
2022-12-11T18:20:38.319Z,15.00
2022-12-11T18:25:41.187Z,16.90
2022-12-11T18:30:46.192Z,14.80
2022-12-11T18:35:50.435Z,14.80
2022-12-11T18:40:53.226Z,16.30
2022-12-11T18:45:56.578Z,16.50
2022-12-11T18:51:00.505Z,16.80
2022-12-11T18:56:13.912Z,16.40
2022-12-11T19:01:20.385Z,14.80
2022-12-11T19:06:25.646Z,17.50
2022-12-11T19:11:30.288Z,17.50
2022-12-11T19:16:38.724Z,14.90
2022-12-11T19:26:44.637Z,18.50
2022-12-11T19:31:47.697Z,18.70
2022-12-11T19:36:50.696Z,21.20
2022-12-11T19:41:53.493Z,23.40
2022-12-11T19:46:56.329Z,20.10
2022-12-11T19:51:59.208Z,18.50
2022-12-11T19:57:02.152Z,23.40
2022-12-11T20:02:05.032Z,21.90
2022-12-11T20:07:08.431Z,17.70
2022-12-11T20:12:11.274Z,19.90
2022-12-11T20:17:14.949Z,17.80
2022-12-11T20:22:18.168Z,20.00
2022-12-11T20:27:21.250Z,17.30
2022-12-11T20:32:24.089Z,19.60
2022-12-11T20:37:29.168Z,19.70
2022-12-11T20:42:33.556Z,21.70
2022-12-11T20:47:36.900Z,21.30
2022-12-11T20:52:40.640Z,20.10
2022-12-11T20:57:45.241Z,19.40
2022-12-11T21:02:50.870Z,17.40
2022-12-11T21:07:56.284Z,17.20
2022-12-11T21:12:59.188Z,15.30
2022-12-11T21:18:02.224Z,15.40
2022-12-11T21:23:04.977Z,16.00
2022-12-11T21:28:08.263Z,15.40
2022-12-11T21:33:12.110Z,16.10
2022-12-11T21:38:15.010Z,16.90
2022-12-11T21:43:17.835Z,17.30
2022-12-11T21:48:21.061Z,14.80
2022-12-11T21:53:23.943Z,16.60
2022-12-11T21:58:26.820Z,16.40
2022-12-11T22:03:29.641Z,18.20
2022-12-11T22:08:32.487Z,18.20
2022-12-11T22:13:35.520Z,16.70
2022-12-11T22:18:38.517Z,18.50
2022-12-11T22:23:41.541Z,21.70
2022-12-11T22:28:44.316Z,22.00
2022-12-11T22:33:50.114Z,17.90
2022-12-11T22:38:53.177Z,18.50
2022-12-11T22:43:56.572Z,19.80
2022-12-11T22:48:59.596Z,18.90
2022-12-11T22:54:02.648Z,17.30
2022-12-11T22:59:07.638Z,16.70
2022-12-11T23:04:10.440Z,18.60
2022-12-11T23:09:13.369Z,17.80
2022-12-11T23:14:17.579Z,18.70
2022-12-11T23:19:25.274Z,19.40
2022-12-11T23:24:30.354Z,16.70
2022-12-11T23:29:34.906Z,19.00
2022-12-11T23:34:37.758Z,19.70
2022-12-11T23:39:42.971Z,18.80
2022-12-11T23:44:46.176Z,20.00
2022-12-11T23:49:49.000Z,17.90
2022-12-11T23:54:51.960Z,18.60
2022-12-11T23:59:54.727Z,18.50
